JST820 YSSY-YBBN
Flight info
| Callsign | JST820 |
|---|---|
| Flight time | 1h 17m |
| Altitude | 39000 |
| Route | OLSEM Y193 BANDA H252 BN |
| Aircraft | A320/M-SDE3FGHIRWY/LB1 |
Departure
| Time | 2026-05-05 08:09 |
|---|---|
| Airport | Sydney Kingsford Smith International Airport (YSSY) |
Arrival
| Time | 2026-05-05 09:26 |
|---|---|
| Airport | Brisbane International Airport (YBBN) |
| Time | Latitude | Longitude | Altitude | Speed | Heading |
|---|---|---|---|---|---|
| 2026-05-05 07:41 | -33.93559 | 151.17689 | 30 ft | 0 kts | 100° |
| 2026-05-05 08:00 | -33.93559 | 151.17687 | 30 ft | 2 kts | 100° |
| 2026-05-05 08:00 | -33.93554 | 151.17656 | 30 ft | 4 kts | 100° |
| 2026-05-05 08:01 | -33.93551 | 151.17629 | 30 ft | 3 kts | 101° |
| 2026-05-05 08:01 | -33.93541 | 151.17603 | 30 ft | 4 kts | 149° |
| 2026-05-05 08:01 | -33.93516 | 151.17592 | 30 ft | 4 kts | 169° |
| 2026-05-05 08:01 | -33.93507 | 151.17590 | 30 ft | 0 kts | 168° |
| 2026-05-05 08:04 | -33.93518 | 151.17593 | 30 ft | 6 kts | 168° |
| 2026-05-05 08:04 | -33.93591 | 151.17612 | 30 ft | 16 kts | 168° |
| 2026-05-05 08:05 | -33.93702 | 151.17671 | 30 ft | 19 kts | 154° |
| 2026-05-05 08:05 | -33.93831 | 151.17723 | 30 ft | 20 kts | 142° |
| 2026-05-05 08:05 | -33.93960 | 151.17795 | 29 ft | 22 kts | 167° |
| 2026-05-05 08:05 | -33.94116 | 151.17837 | 29 ft | 24 kts | 167° |
| 2026-05-05 08:06 | -33.94284 | 151.17881 | 30 ft | 25 kts | 167° |
| 2026-05-05 08:06 | -33.94455 | 151.17903 | 30 ft | 24 kts | 200° |
| 2026-05-05 08:06 | -33.94622 | 151.17908 | 30 ft | 25 kts | 168° |
| 2026-05-05 08:06 | -33.94798 | 151.17954 | 30 ft | 26 kts | 168° |
| 2026-05-05 08:07 | -33.94983 | 151.18002 | 30 ft | 28 kts | 167° |
| 2026-05-05 08:07 | -33.95095 | 151.18120 | 30 ft | 24 kts | 80° |
| 2026-05-05 08:07 | -33.95061 | 151.18325 | 30 ft | 26 kts | 79° |
| 2026-05-05 08:07 | -33.95023 | 151.18547 | 30 ft | 28 kts | 78° |
| 2026-05-05 08:08 | -33.94986 | 151.18771 | 28 ft | 25 kts | 96° |
| 2026-05-05 08:08 | -33.95121 | 151.18869 | 24 ft | 26 kts | 167° |
| 2026-05-05 08:08 | -33.95484 | 151.18966 | 26 ft | 88 kts | 167° |
| 2026-05-05 08:08 | -33.96270 | 151.19170 | 28 ft | 141 kts | 167° |
| 2026-05-05 08:09 | -33.97282 | 151.19443 | 451 ft | 149 kts | 166° |
| 2026-05-05 08:09 | -33.98263 | 151.20008 | 866 ft | 165 kts | 135° |
| 2026-05-05 08:09 | -33.98927 | 151.21186 | 1424 ft | 172 kts | 126° |
| 2026-05-05 08:09 | -33.99592 | 151.22402 | 1990 ft | 176 kts | 128° |
| 2026-05-05 08:10 | -34.00287 | 151.23647 | 2557 ft | 182 kts | 128° |
| 2026-05-05 08:10 | -34.01084 | 151.24847 | 3114 ft | 185 kts | 143° |
| 2026-05-05 08:10 | -34.02088 | 151.25825 | 3672 ft | 191 kts | 144° |
| 2026-05-05 08:10 | -34.03138 | 151.26847 | 4238 ft | 198 kts | 144° |
| 2026-05-05 08:11 | -34.04230 | 151.27912 | 4808 ft | 206 kts | 144° |
| 2026-05-05 08:11 | -34.05404 | 151.29056 | 4989 ft | 226 kts | 144° |
| 2026-05-05 08:11 | -34.06686 | 151.30303 | 5133 ft | 245 kts | 143° |
| 2026-05-05 08:11 | -34.08022 | 151.31610 | 5991 ft | 249 kts | 143° |
| 2026-05-05 08:12 | -34.09390 | 151.32952 | 6827 ft | 256 kts | 143° |
| 2026-05-05 08:12 | -34.10676 | 151.34472 | 7610 ft | 265 kts | 128° |
| 2026-05-05 08:12 | -34.11442 | 151.36530 | 8414 ft | 274 kts | 103° |
| 2026-05-05 08:12 | -34.11475 | 151.38842 | 9227 ft | 280 kts | 77° |
| 2026-05-05 08:13 | -34.10716 | 151.41010 | 10011 ft | 284 kts | 52° |
| 2026-05-05 08:13 | -34.09434 | 151.42786 | 10751 ft | 286 kts | 45° |
| 2026-05-05 08:13 | -34.08073 | 151.44562 | 11492 ft | 290 kts | 43° |
| 2026-05-05 08:13 | -34.06527 | 151.46131 | 12238 ft | 291 kts | 32° |
| 2026-05-05 08:14 | -34.04752 | 151.47324 | 12971 ft | 293 kts | 20° |
| 2026-05-05 08:14 | -34.02812 | 151.48092 | 13693 ft | 295 kts | 11° |
| 2026-05-05 08:14 | -34.00813 | 151.48730 | 14367 ft | 299 kts | 12° |
| 2026-05-05 08:14 | -33.98796 | 151.49384 | 15046 ft | 301 kts | 12° |
| 2026-05-05 08:15 | -33.96764 | 151.50049 | 15725 ft | 303 kts | 12° |
| 2026-05-05 08:15 | -33.94752 | 151.50712 | 16439 ft | 304 kts | 12° |
| 2026-05-05 08:15 | -33.92705 | 151.51388 | 17130 ft | 306 kts | 12° |
| 2026-05-05 08:15 | -33.90644 | 151.52066 | 17809 ft | 308 kts | 12° |
| 2026-05-05 08:16 | -33.88566 | 151.52748 | 18476 ft | 310 kts | 12° |
| 2026-05-05 08:16 | -33.86475 | 151.53434 | 19059 ft | 313 kts | 12° |
| 2026-05-05 08:16 | -33.84370 | 151.54123 | 19643 ft | 314 kts | 12° |
| 2026-05-05 08:16 | -33.82250 | 151.54813 | 20236 ft | 317 kts | 11° |
| 2026-05-05 08:17 | -33.80115 | 151.55508 | 20821 ft | 319 kts | 11° |
| 2026-05-05 08:17 | -33.77962 | 151.56209 | 21384 ft | 321 kts | 11° |
| 2026-05-05 08:17 | -33.75801 | 151.56917 | 21933 ft | 323 kts | 11° |
| 2026-05-05 08:17 | -33.73624 | 151.57628 | 22471 ft | 325 kts | 11° |
| 2026-05-05 08:18 | -33.71433 | 151.58337 | 23019 ft | 327 kts | 10° |
| 2026-05-05 08:18 | -33.69257 | 151.59041 | 23556 ft | 329 kts | 10° |
| 2026-05-05 08:18 | -33.67040 | 151.59770 | 24032 ft | 332 kts | 12° |
| 2026-05-05 08:18 | -33.64860 | 151.60749 | 24486 ft | 337 kts | 19° |
| 2026-05-05 08:19 | -33.62771 | 151.62082 | 24951 ft | 343 kts | 26° |
| 2026-05-05 08:19 | -33.60767 | 151.63664 | 25408 ft | 345 kts | 27° |
| 2026-05-05 08:19 | -33.58754 | 151.65259 | 25864 ft | 347 kts | 26° |
| 2026-05-05 08:19 | -33.56731 | 151.66850 | 26318 ft | 348 kts | 26° |
| 2026-05-05 08:20 | -33.54699 | 151.68442 | 26741 ft | 349 kts | 25° |
| 2026-05-05 08:20 | -33.52685 | 151.70018 | 27176 ft | 351 kts | 24° |
| 2026-05-05 08:20 | -33.50604 | 151.71530 | 27617 ft | 347 kts | 19° |
| 2026-05-05 08:20 | -33.48424 | 151.72730 | 28060 ft | 342 kts | 12° |
| 2026-05-05 08:21 | -33.46174 | 151.73609 | 28516 ft | 337 kts | 5° |
| 2026-05-05 08:21 | -33.43901 | 151.74334 | 28971 ft | 338 kts | 5° |
| 2026-05-05 08:21 | -33.41619 | 151.75069 | 29436 ft | 339 kts | 5° |
| 2026-05-05 08:21 | -33.39337 | 151.75811 | 29914 ft | 340 kts | 5° |
| 2026-05-05 08:22 | -33.37059 | 151.76556 | 30447 ft | 338 kts | 5° |
| 2026-05-05 08:22 | -33.34797 | 151.77296 | 30928 ft | 336 kts | 5° |
| 2026-05-05 08:22 | -33.32548 | 151.78030 | 31350 ft | 335 kts | 5° |
| 2026-05-05 08:22 | -33.30305 | 151.78759 | 31782 ft | 333 kts | 4° |
| 2026-05-05 08:23 | -33.28094 | 151.79474 | 32203 ft | 332 kts | 4° |
| 2026-05-05 08:23 | -33.25865 | 151.80192 | 32615 ft | 331 kts | 4° |
| 2026-05-05 08:23 | -33.23645 | 151.80909 | 33015 ft | 330 kts | 4° |
| 2026-05-05 08:23 | -33.21430 | 151.81622 | 33399 ft | 329 kts | 4° |
| 2026-05-05 08:24 | -33.19221 | 151.82330 | 33764 ft | 328 kts | 3° |
| 2026-05-05 08:24 | -33.17014 | 151.83035 | 34055 ft | 329 kts | 3° |
| 2026-05-05 08:24 | -33.14787 | 151.83744 | 34292 ft | 331 kts | 3° |
| 2026-05-05 08:24 | -33.12553 | 151.84455 | 34509 ft | 333 kts | 3° |
| 2026-05-05 08:25 | -33.10305 | 151.85175 | 34686 ft | 336 kts | 3° |
| 2026-05-05 08:25 | -33.08069 | 151.85893 | 34894 ft | 338 kts | 4° |
| 2026-05-05 08:25 | -33.05793 | 151.86626 | 35100 ft | 340 kts | 4° |
| 2026-05-05 08:25 | -33.03502 | 151.87364 | 35297 ft | 342 kts | 4° |
| 2026-05-05 08:26 | -33.01198 | 151.88104 | 35515 ft | 344 kts | 4° |
| 2026-05-05 08:26 | -32.98882 | 151.88849 | 35707 ft | 346 kts | 4° |
| 2026-05-05 08:26 | -32.96550 | 151.89600 | 35920 ft | 348 kts | 4° |
| 2026-05-05 08:26 | -32.94202 | 151.90355 | 36125 ft | 350 kts | 4° |
| 2026-05-05 08:27 | -32.91844 | 151.91109 | 36326 ft | 352 kts | 4° |
| 2026-05-05 08:27 | -32.89468 | 151.91867 | 36490 ft | 354 kts | 3° |
| 2026-05-05 08:27 | -32.87086 | 151.92631 | 36694 ft | 355 kts | 3° |
| 2026-05-05 08:27 | -32.84694 | 151.93399 | 36898 ft | 357 kts | 3° |
| 2026-05-05 08:28 | -32.82286 | 151.94169 | 37094 ft | 359 kts | 3° |
| 2026-05-05 08:28 | -32.79902 | 151.94927 | 37281 ft | 360 kts | 3° |
| 2026-05-05 08:28 | -32.77476 | 151.95698 | 37465 ft | 362 kts | 3° |
| 2026-05-05 08:28 | -32.75036 | 151.96475 | 37639 ft | 364 kts | 3° |
| 2026-05-05 08:29 | -32.72583 | 151.97255 | 37804 ft | 366 kts | 3° |
| 2026-05-05 08:29 | -32.70114 | 151.98042 | 37982 ft | 368 kts | 3° |
| 2026-05-05 08:29 | -32.67628 | 151.98834 | 38143 ft | 369 kts | 3° |
| 2026-05-05 08:30 | -32.62663 | 152.00412 | 38475 ft | 373 kts | 3° |
| 2026-05-05 08:30 | -32.60150 | 152.01214 | 38648 ft | 375 kts | 3° |
| 2026-05-05 08:30 | -32.57624 | 152.02022 | 38797 ft | 376 kts | 3° |
| 2026-05-05 08:30 | -32.55086 | 152.02826 | 38922 ft | 378 kts | 3° |
| 2026-05-05 08:31 | -32.52545 | 152.03630 | 39072 ft | 379 kts | 3° |
| 2026-05-05 08:31 | -32.47420 | 152.05247 | 39167 ft | 383 kts | 4° |
| 2026-05-05 08:32 | -32.42301 | 152.06878 | 39174 ft | 383 kts | 3° |
| 2026-05-05 08:32 | -32.37147 | 152.08524 | 39172 ft | 383 kts | 3° |
| 2026-05-05 08:33 | -32.31999 | 152.10139 | 39171 ft | 383 kts | 3° |
| 2026-05-05 08:33 | -32.26848 | 152.11754 | 39162 ft | 383 kts | 3° |
| 2026-05-05 08:34 | -32.21734 | 152.13362 | 39161 ft | 383 kts | 2° |
| 2026-05-05 08:34 | -32.16580 | 152.14987 | 39168 ft | 383 kts | 3° |
| 2026-05-05 08:35 | -32.11426 | 152.16614 | 39168 ft | 383 kts | 2° |
| 2026-05-05 08:35 | -32.06277 | 152.18233 | 39168 ft | 383 kts | 2° |
| 2026-05-05 08:36 | -32.01113 | 152.19848 | 39173 ft | 387 kts | 2° |
| 2026-05-05 08:36 | -31.95870 | 152.21479 | 39174 ft | 398 kts | 2° |
| 2026-05-05 08:37 | -31.90455 | 152.23168 | 39175 ft | 408 kts | 3° |
| 2026-05-05 08:37 | -31.84894 | 152.24909 | 39170 ft | 418 kts | 3° |
| 2026-05-05 08:38 | -31.79217 | 152.26691 | 39175 ft | 424 kts | 3° |
| 2026-05-05 08:38 | -31.73500 | 152.28476 | 39174 ft | 425 kts | 2° |
| 2026-05-05 08:39 | -31.67805 | 152.30243 | 39173 ft | 426 kts | 2° |
| 2026-05-05 08:39 | -31.62065 | 152.32034 | 39175 ft | 426 kts | 2° |
| 2026-05-05 08:40 | -31.56319 | 152.33823 | 39170 ft | 427 kts | 2° |
| 2026-05-05 08:40 | -31.50610 | 152.35589 | 39176 ft | 427 kts | 2° |
| 2026-05-05 08:41 | -31.44853 | 152.37374 | 39177 ft | 428 kts | 2° |
| 2026-05-05 08:41 | -31.39094 | 152.39157 | 39176 ft | 428 kts | 2° |
| 2026-05-05 08:42 | -31.33338 | 152.40927 | 39176 ft | 427 kts | 2° |
| 2026-05-05 08:42 | -31.27578 | 152.42702 | 39171 ft | 428 kts | 2° |
| 2026-05-05 08:43 | -31.21857 | 152.44473 | 39173 ft | 427 kts | 2° |
| 2026-05-05 08:43 | -31.16104 | 152.46252 | 39171 ft | 428 kts | 2° |
| 2026-05-05 08:44 | -31.10341 | 152.48029 | 39170 ft | 427 kts | 2° |
| 2026-05-05 08:44 | -31.04654 | 152.49776 | 39171 ft | 423 kts | 2° |
| 2026-05-05 08:45 | -30.98974 | 152.51523 | 39171 ft | 421 kts | 2° |
| 2026-05-05 08:45 | -30.93307 | 152.53248 | 39173 ft | 420 kts | 2° |
| 2026-05-05 08:46 | -30.87677 | 152.54961 | 39166 ft | 416 kts | 2° |
| 2026-05-05 08:46 | -30.82125 | 152.56661 | 39167 ft | 413 kts | 2° |
| 2026-05-05 08:47 | -30.76566 | 152.58442 | 39174 ft | 416 kts | 4° |
| 2026-05-05 08:47 | -30.71019 | 152.60483 | 39173 ft | 418 kts | 5° |
| 2026-05-05 08:48 | -30.65488 | 152.62572 | 39171 ft | 417 kts | 5° |
| 2026-05-05 08:48 | -30.59980 | 152.64597 | 39162 ft | 418 kts | 4° |
| 2026-05-05 08:49 | -30.54429 | 152.66596 | 39173 ft | 418 kts | 4° |
| 2026-05-05 08:49 | -30.48846 | 152.68593 | 39171 ft | 420 kts | 4° |
| 2026-05-05 08:50 | -30.43282 | 152.70599 | 39168 ft | 421 kts | 4° |
| 2026-05-05 08:50 | -30.37688 | 152.72630 | 39163 ft | 421 kts | 4° |
| 2026-05-05 08:51 | -30.32095 | 152.74653 | 39171 ft | 421 kts | 4° |
| 2026-05-05 08:51 | -30.26496 | 152.76658 | 39167 ft | 421 kts | 4° |
| 2026-05-05 08:52 | -30.20926 | 152.78649 | 39167 ft | 421 kts | 4° |
| 2026-05-05 08:52 | -30.15316 | 152.80661 | 39144 ft | 422 kts | 4° |
| 2026-05-05 08:53 | -30.09715 | 152.82683 | 39161 ft | 421 kts | 4° |
| 2026-05-05 08:53 | -30.04169 | 152.84670 | 39158 ft | 419 kts | 4° |
| 2026-05-05 08:54 | -29.98591 | 152.86665 | 39164 ft | 419 kts | 4° |
| 2026-05-05 08:54 | -29.93010 | 152.88662 | 39151 ft | 419 kts | 4° |
| 2026-05-05 08:55 | -29.87444 | 152.90645 | 39144 ft | 418 kts | 3° |
| 2026-05-05 08:55 | -29.82828 | 152.92285 | 39144 ft | 417 kts | 3° |
| 2026-05-05 08:56 | -29.76375 | 152.94582 | 39146 ft | 417 kts | 3° |
| 2026-05-05 08:56 | -29.71761 | 152.96222 | 39147 ft | 417 kts | 3° |
| 2026-05-05 08:56 | -29.68971 | 152.97208 | 38814 ft | 421 kts | 3° |
| 2026-05-05 08:57 | -29.66182 | 152.98196 | 38211 ft | 419 kts | 3° |
| 2026-05-05 08:57 | -29.63403 | 152.99183 | 37647 ft | 417 kts | 4° |
| 2026-05-05 08:57 | -29.60636 | 153.00164 | 37102 ft | 416 kts | 4° |
| 2026-05-05 08:57 | -29.57867 | 153.01147 | 36564 ft | 415 kts | 4° |
| 2026-05-05 08:58 | -29.55110 | 153.02123 | 36050 ft | 415 kts | 4° |
| 2026-05-05 08:58 | -29.52386 | 153.03082 | 35550 ft | 415 kts | 4° |
| 2026-05-05 08:58 | -29.49624 | 153.04054 | 35052 ft | 415 kts | 5° |
| 2026-05-05 08:58 | -29.46865 | 153.05026 | 34562 ft | 415 kts | 5° |
| 2026-05-05 08:59 | -29.44102 | 153.06000 | 34053 ft | 415 kts | 5° |
| 2026-05-05 08:59 | -29.41347 | 153.06976 | 33491 ft | 414 kts | 5° |
| 2026-05-05 08:59 | -29.38581 | 153.07955 | 32948 ft | 416 kts | 5° |
| 2026-05-05 08:59 | -29.35793 | 153.08938 | 32410 ft | 420 kts | 6° |
| 2026-05-05 09:00 | -29.33024 | 153.09915 | 31892 ft | 423 kts | 6° |
| 2026-05-05 09:00 | -29.30192 | 153.10911 | 31381 ft | 428 kts | 6° |
| 2026-05-05 09:00 | -29.27327 | 153.11917 | 30877 ft | 432 kts | 6° |
| 2026-05-05 09:00 | -29.24441 | 153.12931 | 30383 ft | 436 kts | 6° |
| 2026-05-05 09:01 | -29.21526 | 153.13953 | 29832 ft | 440 kts | 6° |
| 2026-05-05 09:01 | -29.18591 | 153.14985 | 29230 ft | 440 kts | 7° |
| 2026-05-05 09:01 | -29.15669 | 153.16020 | 28672 ft | 438 kts | 7° |
| 2026-05-05 09:01 | -29.12763 | 153.17054 | 28126 ft | 435 kts | 7° |
| 2026-05-05 09:02 | -29.09919 | 153.18062 | 27594 ft | 432 kts | 8° |
| 2026-05-05 09:02 | -29.07049 | 153.19074 | 27068 ft | 430 kts | 8° |
| 2026-05-05 09:02 | -29.04196 | 153.20073 | 26551 ft | 427 kts | 8° |
| 2026-05-05 09:02 | -29.01367 | 153.21060 | 26042 ft | 424 kts | 8° |
| 2026-05-05 09:03 | -28.98553 | 153.22045 | 25547 ft | 422 kts | 9° |
| 2026-05-05 09:03 | -28.95749 | 153.23028 | 25032 ft | 420 kts | 9° |
| 2026-05-05 09:03 | -28.92960 | 153.24007 | 24551 ft | 418 kts | 9° |
| 2026-05-05 09:03 | -28.90188 | 153.24978 | 24079 ft | 416 kts | 9° |
| 2026-05-05 09:04 | -28.87464 | 153.25931 | 23598 ft | 414 kts | 10° |
| 2026-05-05 09:04 | -28.84717 | 153.26891 | 23044 ft | 411 kts | 10° |
| 2026-05-05 09:04 | -28.81992 | 153.27842 | 22491 ft | 407 kts | 10° |
| 2026-05-05 09:04 | -28.79294 | 153.28783 | 21957 ft | 404 kts | 11° |
| 2026-05-05 09:05 | -28.76612 | 153.29719 | 21429 ft | 401 kts | 11° |
| 2026-05-05 09:05 | -28.73951 | 153.30647 | 20909 ft | 398 kts | 11° |
| 2026-05-05 09:05 | -28.71312 | 153.31565 | 20388 ft | 396 kts | 11° |
| 2026-05-05 09:05 | -28.68688 | 153.32476 | 19888 ft | 393 kts | 11° |
| 2026-05-05 09:06 | -28.66112 | 153.33371 | 19403 ft | 390 kts | 12° |
| 2026-05-05 09:06 | -28.63524 | 153.34270 | 18923 ft | 387 kts | 12° |
| 2026-05-05 09:06 | -28.60953 | 153.35164 | 18441 ft | 384 kts | 12° |
| 2026-05-05 09:06 | -28.58412 | 153.36050 | 17899 ft | 380 kts | 12° |
| 2026-05-05 09:07 | -28.55895 | 153.36927 | 17354 ft | 376 kts | 13° |
| 2026-05-05 09:07 | -28.53392 | 153.37793 | 16829 ft | 374 kts | 13° |
| 2026-05-05 09:07 | -28.50905 | 153.38653 | 16301 ft | 372 kts | 14° |
| 2026-05-05 09:07 | -28.48436 | 153.39507 | 15787 ft | 370 kts | 14° |
| 2026-05-05 09:08 | -28.46010 | 153.40348 | 15279 ft | 369 kts | 14° |
| 2026-05-05 09:08 | -28.43565 | 153.41196 | 14780 ft | 367 kts | 15° |
| 2026-05-05 09:08 | -28.41127 | 153.42039 | 14288 ft | 365 kts | 15° |
| 2026-05-05 09:08 | -28.38704 | 153.42874 | 13793 ft | 363 kts | 15° |
| 2026-05-05 09:09 | -28.36290 | 153.43708 | 13237 ft | 361 kts | 15° |
| 2026-05-05 09:09 | -28.33894 | 153.44540 | 12697 ft | 359 kts | 16° |
| 2026-05-05 09:09 | -28.31518 | 153.45364 | 12168 ft | 357 kts | 16° |
| 2026-05-05 09:09 | -28.29147 | 153.46183 | 11649 ft | 355 kts | 16° |
| 2026-05-05 09:10 | -28.26819 | 153.46984 | 11142 ft | 354 kts | 17° |
| 2026-05-05 09:10 | -28.24466 | 153.47795 | 10645 ft | 352 kts | 17° |
| 2026-05-05 09:10 | -28.22123 | 153.48598 | 10144 ft | 350 kts | 16° |
| 2026-05-05 09:10 | -28.19731 | 153.49093 | 9622 ft | 348 kts | 5° |
| 2026-05-05 09:11 | -28.17320 | 153.49032 | 9063 ft | 346 kts | 352° |
| 2026-05-05 09:11 | -28.14985 | 153.48424 | 8546 ft | 343 kts | 340° |
| 2026-05-05 09:11 | -28.12825 | 153.47310 | 8017 ft | 341 kts | 329° |
| 2026-05-05 09:11 | -28.10841 | 153.45842 | 7543 ft | 338 kts | 325° |
| 2026-05-05 09:12 | -28.08913 | 153.44386 | 7035 ft | 337 kts | 325° |
| 2026-05-05 09:12 | -28.06963 | 153.42919 | 6543 ft | 335 kts | 326° |
| 2026-05-05 09:12 | -28.05024 | 153.41466 | 6124 ft | 331 kts | 326° |
| 2026-05-05 09:12 | -28.03142 | 153.40059 | 6019 ft | 316 kts | 326° |
| 2026-05-05 09:13 | -28.01357 | 153.38724 | 6040 ft | 299 kts | 325° |
| 2026-05-05 09:13 | -27.99661 | 153.37453 | 6036 ft | 288 kts | 325° |
| 2026-05-05 09:13 | -27.97991 | 153.36200 | 5824 ft | 285 kts | 325° |
| 2026-05-05 09:13 | -27.96347 | 153.34941 | 5700 ft | 284 kts | 322° |
| 2026-05-05 09:14 | -27.94835 | 153.33550 | 5578 ft | 284 kts | 319° |
| 2026-05-05 09:14 | -27.93309 | 153.32131 | 5457 ft | 283 kts | 319° |
| 2026-05-05 09:14 | -27.91786 | 153.30725 | 5326 ft | 282 kts | 319° |
| 2026-05-05 09:14 | -27.90259 | 153.29318 | 5211 ft | 282 kts | 319° |
| 2026-05-05 09:15 | -27.88736 | 153.27914 | 5082 ft | 282 kts | 319° |
| 2026-05-05 09:15 | -27.87216 | 153.26513 | 4959 ft | 281 kts | 319° |
| 2026-05-05 09:15 | -27.85722 | 153.25134 | 4824 ft | 280 kts | 319° |
| 2026-05-05 09:15 | -27.84203 | 153.23750 | 4710 ft | 280 kts | 320° |
| 2026-05-05 09:16 | -27.82658 | 153.22415 | 4579 ft | 279 kts | 322° |
| 2026-05-05 09:16 | -27.81102 | 153.21104 | 4452 ft | 278 kts | 322° |
| 2026-05-05 09:16 | -27.79546 | 153.19803 | 4331 ft | 278 kts | 322° |
| 2026-05-05 09:16 | -27.78064 | 153.18414 | 4209 ft | 276 kts | 313° |
| 2026-05-05 09:17 | -27.76848 | 153.16746 | 4089 ft | 274 kts | 306° |
| 2026-05-05 09:17 | -27.75677 | 153.15051 | 4031 ft | 274 kts | 306° |
| 2026-05-05 09:17 | -27.74502 | 153.13388 | 4039 ft | 274 kts | 308° |
| 2026-05-05 09:17 | -27.73251 | 153.11759 | 4037 ft | 274 kts | 310° |
| 2026-05-05 09:18 | -27.71975 | 153.10157 | 4035 ft | 274 kts | 311° |
| 2026-05-05 09:18 | -27.70691 | 153.08561 | 4037 ft | 274 kts | 311° |
| 2026-05-05 09:18 | -27.69444 | 153.07007 | 4034 ft | 260 kts | 310° |
| 2026-05-05 09:18 | -27.68256 | 153.05516 | 4036 ft | 254 kts | 310° |
| 2026-05-05 09:19 | -27.67081 | 153.04032 | 4030 ft | 253 kts | 310° |
| 2026-05-05 09:19 | -27.65933 | 153.02578 | 3947 ft | 247 kts | 310° |
| 2026-05-05 09:19 | -27.64812 | 153.01161 | 3823 ft | 237 kts | 310° |
| 2026-05-05 09:19 | -27.63608 | 152.99961 | 3704 ft | 227 kts | 326° |
| 2026-05-05 09:20 | -27.62205 | 152.99193 | 3515 ft | 221 kts | 342° |
| 2026-05-05 09:20 | -27.60718 | 152.98788 | 3258 ft | 219 kts | 354° |
| 2026-05-05 09:20 | -27.59222 | 152.98869 | 3077 ft | 212 kts | 14° |
| 2026-05-05 09:20 | -27.57913 | 152.99439 | 3039 ft | 196 kts | 28° |
| 2026-05-05 09:21 | -27.56749 | 153.00108 | 3019 ft | 180 kts | 28° |
| 2026-05-05 09:21 | -27.55683 | 153.00719 | 3010 ft | 164 kts | 28° |
| 2026-05-05 09:21 | -27.54697 | 153.01285 | 3012 ft | 156 kts | 28° |
| 2026-05-05 09:21 | -27.53747 | 153.01830 | 3041 ft | 152 kts | 28° |
| 2026-05-05 09:22 | -27.52814 | 153.02366 | 3020 ft | 151 kts | 28° |
| 2026-05-05 09:22 | -27.51882 | 153.02901 | 2900 ft | 150 kts | 28° |
| 2026-05-05 09:22 | -27.50958 | 153.03431 | 2732 ft | 148 kts | 28° |
| 2026-05-05 09:22 | -27.50044 | 153.03955 | 2553 ft | 147 kts | 28° |
| 2026-05-05 09:23 | -27.49147 | 153.04469 | 2363 ft | 146 kts | 28° |
| 2026-05-05 09:23 | -27.48244 | 153.04987 | 2175 ft | 145 kts | 28° |
| 2026-05-05 09:23 | -27.47351 | 153.05499 | 1987 ft | 143 kts | 28° |
| 2026-05-05 09:23 | -27.46466 | 153.06006 | 1801 ft | 142 kts | 29° |
| 2026-05-05 09:24 | -27.45588 | 153.06509 | 1612 ft | 141 kts | 28° |
| 2026-05-05 09:24 | -27.44718 | 153.07008 | 1428 ft | 140 kts | 28° |
| 2026-05-05 09:24 | -27.43844 | 153.07510 | 1251 ft | 145 kts | 28° |
| 2026-05-05 09:24 | -27.42965 | 153.08021 | 1078 ft | 143 kts | 28° |
| 2026-05-05 09:25 | -27.42096 | 153.08542 | 889 ft | 142 kts | 27° |
| 2026-05-05 09:25 | -27.41223 | 153.09032 | 741 ft | 139 kts | 28° |
| 2026-05-05 09:25 | -27.40352 | 153.09516 | 596 ft | 140 kts | 27° |
| 2026-05-05 09:25 | -27.39482 | 153.10000 | 393 ft | 138 kts | 27° |
| 2026-05-05 09:26 | -27.38633 | 153.10497 | 136 ft | 137 kts | 26° |
| 2026-05-05 09:26 | -27.37816 | 153.10960 | 23 ft | 120 kts | 27° |
| 2026-05-05 09:26 | -27.37172 | 153.11327 | 22 ft | 85 kts | 27° |
| 2026-05-05 09:26 | -27.36783 | 153.11575 | 20 ft | 48 kts | 43° |
| 2026-05-05 09:27 | -27.36646 | 153.11786 | 21 ft | 14 kts | 59° |
| 2026-05-05 09:27 | -27.36639 | 153.11899 | 23 ft | 17 kts | 119° |
| 2026-05-05 09:27 | -27.36740 | 153.11903 | 21 ft | 17 kts | 205° |
| 2026-05-05 09:27 | -27.36856 | 153.11836 | 21 ft | 20 kts | 207° |
| 2026-05-05 09:28 | -27.36991 | 153.11759 | 23 ft | 23 kts | 207° |
| 2026-05-05 09:28 | -27.37146 | 153.11669 | 24 ft | 26 kts | 207° |
| 2026-05-05 09:28 | -27.37316 | 153.11583 | 21 ft | 22 kts | 174° |
| 2026-05-05 09:28 | -27.37365 | 153.11704 | 21 ft | 18 kts | 116° |
| 2026-05-05 09:29 | -27.37431 | 153.11844 | 23 ft | 24 kts | 118° |
| 2026-05-05 09:29 | -27.37526 | 153.12054 | 21 ft | 36 kts | 116° |
| 2026-05-05 09:29 | -27.37649 | 153.12326 | 21 ft | 39 kts | 117° |
| 2026-05-05 09:29 | -27.37773 | 153.12595 | 21 ft | 36 kts | 117° |
| 2026-05-05 09:30 | -27.37866 | 153.12786 | 21 ft | 19 kts | 134° |
| 2026-05-05 09:30 | -27.37992 | 153.12765 | 21 ft | 21 kts | 206° |
| 2026-05-05 09:30 | -27.38133 | 153.12685 | 22 ft | 24 kts | 207° |
| 2026-05-05 09:30 | -27.38292 | 153.12594 | 22 ft | 27 kts | 206° |
| 2026-05-05 09:31 | -27.38469 | 153.12493 | 22 ft | 30 kts | 208° |
| 2026-05-05 09:31 | -27.38659 | 153.12382 | 23 ft | 32 kts | 206° |
| 2026-05-05 09:31 | -27.38868 | 153.12265 | 21 ft | 34 kts | 207° |
| 2026-05-05 09:31 | -27.39036 | 153.12140 | 22 ft | 24 kts | 252° |
| 2026-05-05 09:32 | -27.38974 | 153.11985 | 21 ft | 16 kts | 312° |
| 2026-05-05 09:32 | -27.38922 | 153.11953 | 23 ft | 4 kts | 353° |
| 2026-05-05 09:32 | -27.38896 | 153.11955 | 21 ft | 0 kts | 5° |
| 2026-05-05 09:32 | -27.38890 | 153.11956 | 21 ft | 0 kts | 2° |